Time;durP1;ratioP1;P1;durP2;ratioP2;P2;SDS_P1;SDS_P2;PMS_P1;PMS_P2;Temp;Humidity;BMP_temperature;BMP_pressure;BME280_temperature;BME280_humidity;BME280_pressure;Samples;Min_cycle;Max_cycle;Signal;HPM_P1;HPM_P2
2021/10/31 00:00:44;;;;;;;33.60;24.37;;;6.70;99.90;;;;;;5032678;28;20045;-73
2021/10/31 00:03:09;;;;;;;30.23;23.83;;;6.60;99.90;;;;;;5033572;28;20025;-73
2021/10/31 00:05:35;;;;;;;29.67;24.13;;;6.60;99.90;;;;;;5033619;28;20029;-73
2021/10/31 00:08:01;;;;;;;33.93;25.97;;;6.50;99.90;;;;;;5033579;28;20021;-73
2021/10/31 00:10:26;;;;;;;33.13;24.90;;;6.50;99.90;;;;;;5033485;28;20026;-73
2021/10/31 00:12:52;;;;;;;32.87;25.10;;;6.50;99.90;;;;;;5032216;28;20143;-73
2021/10/31 00:15:18;;;;;;;33.87;25.20;;;6.50;99.90;;;;;;5032950;28;20034;-73
2021/10/31 00:17:43;;;;;;;33.80;24.50;;;6.40;99.90;;;;;;5033094;28;20034;-73
2021/10/31 00:20:09;;;;;;;29.37;24.07;;;6.50;99.90;;;;;;5019434;28;20034;-73
2021/10/31 00:22:35;;;;;;;31.60;23.97;;;6.50;99.90;;;;;;5019435;28;20462;-73
2021/10/31 00:25:01;;;;;;;31.77;23.47;;;6.50;99.90;;;;;;5033062;28;20037;-73
2021/10/31 00:27:27;;;;;;;29.67;22.67;;;6.50;99.90;;;;;;5032996;28;20462;-73
2021/10/31 00:29:52;;;;;;;31.73;23.90;;;6.50;99.90;;;;;;5033013;28;20529;-73
2021/10/31 00:32:18;;;;;;;30.53;23.30;;;6.60;99.90;;;;;;5032821;28;20060;-73
2021/10/31 00:34:43;;;;;;;28.70;22.73;;;6.60;99.90;;;;;;5031713;28;20117;-73
2021/10/31 00:37:10;;;;;;;29.27;23.20;;;6.60;99.90;;;;;;5033123;28;20080;-73
2021/10/31 00:39:35;;;;;;;33.73;25.73;;;6.60;99.90;;;;;;5032768;28;20026;-73
2021/10/31 00:42:01;;;;;;;33.23;24.37;;;6.60;99.90;;;;;;5032842;28;20029;-73
2021/10/31 00:44:26;;;;;;;30.93;23.67;;;6.60;99.90;;;;;;5033039;28;20029;-73
2021/10/31 00:46:52;;;;;;;33.27;23.03;;;6.60;99.90;;;;;;5041289;28;20025;-72
2021/10/31 00:49:17;;;;;;;28.67;21.03;;;6.60;99.90;;;;;;5036738;28;20029;-73
2021/10/31 00:51:44;;;;;;;24.57;19.67;;;6.60;99.90;;;;;;5032382;28;20037;-73
2021/10/31 00:54:10;;;;;;;26.37;19.73;;;6.60;99.90;;;;;;5032331;28;20032;-73
2021/10/31 00:56:36;;;;;;;25.00;19.87;;;6.50;99.90;;;;;;5032211;28;20384;-73
2021/10/31 00:59:02;;;;;;;24.17;18.97;;;6.50;99.90;;;;;;5032196;28;20049;-73
2021/10/31 01:01:28;;;;;;;24.13;18.43;;;6.40;99.90;;;;;;5032039;28;20405;-73
2021/10/31 01:03:57;;;;;;;22.07;18.03;;;6.40;99.90;;;;;;5022388;28;20051;-73
2021/10/31 01:06:57;;;;;;;24.67;17.77;;;6.40;99.90;;;;;;5028560;28;20059;-73
2021/10/31 01:09:50;;;;;;;20.67;17.23;;;6.30;99.90;;;;;;5032286;28;20032;-73
2021/10/31 01:12:43;;;;;;;22.50;17.97;;;6.30;99.90;;;;;;5020990;28;20021;-73
2021/10/31 01:15:55;;;;;;;25.30;18.80;;;6.30;99.90;;;;;;5031733;28;20109;-73
2021/10/31 01:18:38;;;;;;;25.60;19.67;;;6.30;99.90;;;;;;5030358;28;20033;-72
2021/10/31 01:21:04;;;;;;;26.13;19.50;;;6.30;99.90;;;;;;5019664;28;20029;-73
2021/10/31 01:23:40;;;;;;;23.63;18.97;;;6.30;99.90;;;;;;5031920;28;20029;-73
2021/10/31 01:26:36;;;;;;;26.17;18.47;;;6.20;99.90;;;;;;5031814;28;20030;-73
2021/10/31 01:29:32;;;;;;;22.03;17.80;;;6.20;99.90;;;;;;5030655;28;20021;-73
2021/10/31 01:32:16;;;;;;;;;;;6.20;99.90;;;;;;5032475;28;20060;-73
2021/10/31 01:35:19;;;;;;;23.20;17.37;;;6.10;99.90;;;;;;5032075;28;19939;-73
2021/10/31 01:38:17;;;;;;;23.20;17.53;;;6.10;99.90;;;;;;5032454;28;20053;-73
2021/10/31 01:41:05;;;;;;;22.53;16.33;;;6.10;99.90;;;;;;5031763;28;20040;-73
2021/10/31 01:43:40;;;;;;;24.40;16.50;;;6.10;99.90;;;;;;5030863;28;20147;-73
2021/10/31 01:46:22;;;;;;;23.92;16.73;;;6.10;99.90;;;;;;5032236;28;20405;-73
2021/10/31 01:49:16;;;;;;;22.60;16.33;;;6.10;99.90;;;;;;5032179;28;20037;-73
2021/10/31 01:51:55;;;;;;;21.10;15.67;;;6.00;99.90;;;;;;5019833;28;20369;-73
2021/10/31 01:54:29;;;;;;;22.07;16.23;;;6.00;99.90;;;;;;5032141;28;20030;-73
2021/10/31 01:56:59;;;;;;;18.27;15.27;;;6.00;99.90;;;;;;5032009;28;20013;-73
2021/10/31 01:59:30;;;;;;;18.30;14.93;;;6.00;99.90;;;;;;5038947;28;20041;-73
2021/10/31 02:01:58;;;;;;;17.37;14.40;;;5.90;99.90;;;;;;5031794;28;20029;-73
2021/10/31 02:04:25;;;;;;;17.40;14.27;;;5.90;99.90;;;;;;5031850;28;20072;-73
2021/10/31 02:06:52;;;;;;;18.87;14.47;;;5.90;99.90;;;;;;5031832;28;20436;-73
2021/10/31 02:09:21;;;;;;;18.17;14.60;;;5.90;99.90;;;;;;5031916;28;20366;-73
2021/10/31 02:11:48;;;;;;;21.23;16.13;;;5.90;99.90;;;;;;5031709;28;20064;-73
2021/10/31 02:14:14;;;;;;;18.90;15.43;;;5.90;99.90;;;;;;5031695;28;20052;-73
2021/10/31 02:16:41;;;;;;;19.97;15.00;;;5.80;99.90;;;;;;5031581;28;20017;-73
2021/10/31 02:19:13;;;;;;;17.70;13.73;;;5.80;99.90;;;;;;5045602;28;20022;-73
2021/10/31 02:21:40;;;;;;;20.27;14.83;;;5.80;99.90;;;;;;5032071;28;20411;-73
2021/10/31 02:24:08;;;;;;;16.27;12.97;;;5.70;99.90;;;;;;5033439;28;20469;-73
2021/10/31 02:26:38;;;;;;;15.73;13.53;;;5.70;99.90;;;;;;5035009;28;20474;-73
2021/10/31 02:29:07;;;;;;;21.80;14.47;;;5.70;99.90;;;;;;5032108;28;20093;-72
2021/10/31 02:31:34;;;;;;;19.13;14.53;;;5.70;99.90;;;;;;5024653;28;20029;-72
2021/10/31 02:34:00;;;;;;;18.33;13.53;;;5.70;99.90;;;;;;5035242;28;20056;-73
2021/10/31 02:36:25;;;;;;;18.83;13.37;;;5.70;99.90;;;;;;5034787;28;20469;-73
2021/10/31 02:38:51;;;;;;;18.70;14.10;;;5.70;99.90;;;;;;5034748;28;20463;-73
2021/10/31 02:41:17;;;;;;;20.63;13.77;;;5.70;99.90;;;;;;5054751;28;20100;-73
2021/10/31 02:43:43;;;;;;;20.07;14.17;;;5.70;99.90;;;;;;5043016;28;20021;-72
2021/10/31 02:46:08;;;;;;;16.73;12.87;;;5.80;99.90;;;;;;5034705;28;20044;-73
2021/10/31 02:48:37;;;;;;;15.40;11.97;;;5.80;99.90;;;;;;5034541;28;20471;-73
2021/10/31 02:51:29;;;;;;;14.60;12.00;;;5.90;99.90;;;;;;5034639;28;20096;-72
2021/10/31 02:54:25;;;;;;;18.00;12.53;;;5.90;99.90;;;;;;5033625;28;20398;-73
2021/10/31 02:57:18;;;;;;;17.67;12.18;;;5.90;99.90;;;;;;5024902;28;20042;-73
2021/10/31 02:59:56;;;;;;;16.23;11.73;;;5.90;99.90;;;;;;5033896;28;20486;-73
2021/10/31 03:02:26;;;;;;;17.63;11.93;;;6.00;99.90;;;;;;5034721;28;20033;-73
2021/10/31 03:04:52;;;;;;;15.07;12.00;;;6.00;99.90;;;;;;5034390;28;20033;-73
2021/10/31 03:07:20;;;;;;;16.27;11.60;;;6.00;99.90;;;;;;5044416;28;20025;-73
2021/10/31 03:09:47;;;;;;;15.27;10.50;;;6.00;99.90;;;;;;5052174;28;20033;-73
2021/10/31 03:12:14;;;;;;;13.40;10.83;;;5.90;99.90;;;;;;5034503;28;20029;-73
2021/10/31 03:14:40;;;;;;;14.93;10.93;;;5.90;99.90;;;;;;5034051;28;20029;-73
2021/10/31 03:17:06;;;;;;;14.07;10.83;;;5.90;99.90;;;;;;5030044;28;20021;-73
2021/10/31 03:19:32;;;;;;;17.93;11.13;;;5.80;99.90;;;;;;5035003;28;20030;-74
2021/10/31 03:21:59;;;;;;;14.20;11.23;;;5.80;99.90;;;;;;5034929;28;20057;-73
2021/10/31 03:24:25;;;;;;;14.23;10.97;;;5.80;99.90;;;;;;5034950;28;20021;-73
2021/10/31 03:26:50;;;;;;;16.13;11.40;;;5.70;99.90;;;;;;5034822;28;20084;-73
2021/10/31 03:29:16;;;;;;;14.37;10.90;;;5.70;99.90;;;;;;5034777;28;20025;-73
2021/10/31 03:31:42;;;;;;;13.47;10.33;;;5.70;99.90;;;;;;5034804;28;20025;-73
2021/10/31 03:34:08;;;;;;;11.77;9.20;;;5.60;99.90;;;;;;5034492;28;20537;-73
2021/10/31 03:36:34;;;;;;;13.30;9.73;;;5.60;99.90;;;;;;5034378;28;20029;-74
2021/10/31 03:38:59;;;;;;;12.30;10.57;;;5.50;99.90;;;;;;5034753;28;20103;-73
2021/10/31 03:41:25;;;;;;;14.63;10.50;;;5.50;99.90;;;;;;5034394;28;20037;-73
2021/10/31 03:43:51;;;;;;;17.23;11.43;;;5.50;99.90;;;;;;5034327;28;20159;-74
2021/10/31 03:46:16;;;;;;;12.90;10.47;;;5.50;99.90;;;;;;5033425;28;20057;-73
2021/10/31 03:48:42;;;;;;;17.27;11.13;;;5.40;99.90;;;;;;5034248;28;20018;-73
2021/10/31 03:51:07;;;;;;;14.13;10.87;;;5.40;99.90;;;;;;5034545;28;20030;-73
2021/10/31 03:53:33;;;;;;;13.67;10.27;;;5.40;99.90;;;;;;5034520;28;20025;-73
2021/10/31 03:55:59;;;;;;;13.10;10.37;;;5.40;99.90;;;;;;5034659;28;20366;-73
2021/10/31 03:58:24;;;;;;;14.40;10.30;;;5.40;99.90;;;;;;5034474;28;20033;-73
2021/10/31 04:00:50;;;;;;;12.60;9.93;;;5.30;99.90;;;;;;5033937;28;20046;-73
2021/10/31 04:03:16;;;;;;;12.93;9.63;;;5.30;99.90;;;;;;5034192;28;20033;-74
2021/10/31 04:05:41;;;;;;;12.70;9.90;;;5.30;99.90;;;;;;5034357;28;20022;-74
2021/10/31 04:08:07;;;;;;;13.93;10.73;;;5.30;99.90;;;;;;5034149;28;20068;-74
2021/10/31 04:10:32;;;;;;;15.20;10.60;;;5.30;99.90;;;;;;5033938;28;20037;-73
2021/10/31 04:12:58;;;;;;;13.17;10.20;;;5.30;99.90;;;;;;5032453;28;20083;-74
2021/10/31 04:15:24;;;;;;;13.03;10.07;;;5.30;99.90;;;;;;5033805;28;20018;-74
2021/10/31 04:17:50;;;;;;;12.63;9.30;;;5.30;99.90;;;;;;5034050;28;20421;-74
2021/10/31 04:20:16;;;;;;;11.83;9.20;;;5.20;99.90;;;;;;5033972;28;20037;-73
2021/10/31 04:22:44;;;;;;;11.83;9.20;;;5.20;99.90;;;;;;5033591;28;20092;-73
2021/10/31 04:25:10;;;;;;;12.83;9.40;;;5.20;99.90;;;;;;5033977;28;20087;-73
2021/10/31 04:27:36;;;;;;;12.57;8.20;;;5.10;99.90;;;;;;5033617;28;20022;-73
2021/10/31 04:30:04;;;;;;;14.03;8.80;;;5.10;99.90;;;;;;5033824;28;20107;-73
2021/10/31 04:32:30;;;;;;;13.13;9.13;;;5.10;99.90;;;;;;5033630;28;20025;-73
2021/10/31 04:34:55;;;;;;;14.47;8.80;;;5.10;99.90;;;;;;5033550;28;20029;-73
2021/10/31 04:37:21;;;;;;;12.20;8.17;;;5.00;99.90;;;;;;5033648;28;20076;-74
2021/10/31 04:39:48;;;;;;;9.73;7.67;;;5.00;99.90;;;;;;5033700;28;20021;-73
2021/10/31 04:42:14;;;;;;;11.13;7.40;;;5.00;99.90;;;;;;5033460;28;20485;-73
2021/10/31 04:44:40;;;;;;;8.73;7.13;;;4.90;99.90;;;;;;5033516;28;20100;-73
2021/10/31 04:47:06;;;;;;;12.23;8.63;;;4.90;99.90;;;;;;5032748;28;20026;-73
2021/10/31 04:49:33;;;;;;;11.63;7.53;;;4.90;99.90;;;;;;5033642;28;20025;-73
2021/10/31 04:51:59;;;;;;;10.93;8.10;;;4.90;99.90;;;;;;5019867;28;20374;-73
2021/10/31 04:54:24;;;;;;;9.83;6.93;;;4.80;99.90;;;;;;5033249;28;20032;-74
2021/10/31 04:56:50;;;;;;;9.50;7.27;;;4.80;99.90;;;;;;5033309;28;20100;-73
2021/10/31 04:59:16;;;;;;;10.07;8.00;;;4.80;99.90;;;;;;5033218;28;20042;-74
2021/10/31 05:01:41;;;;;;;10.40;7.37;;;4.80;99.90;;;;;;5033292;28;20087;-73
2021/10/31 05:04:07;;;;;;;10.90;7.60;;;4.80;99.90;;;;;;5040986;28;20116;-73
2021/10/31 05:06:33;;;;;;;10.93;7.97;;;4.80;99.90;;;;;;5053074;28;20018;-73
2021/10/31 05:08:59;;;;;;;8.80;7.23;;;4.80;99.90;;;;;;5047014;28;20588;-73
2021/10/31 05:11:25;;;;;;;10.90;7.17;;;4.70;99.90;;;;;;5033151;28;20037;-73
2021/10/31 05:13:51;;;;;;;11.97;6.90;;;4.70;99.90;;;;;;5031982;28;20358;-74
2021/10/31 05:16:17;;;;;;;9.37;6.70;;;4.70;99.90;;;;;;5033544;28;20032;-74
2021/10/31 05:18:42;;;;;;;11.10;7.43;;;4.60;99.90;;;;;;5032933;28;20128;-74
2021/10/31 05:21:11;;;;;;;11.20;6.90;;;4.60;99.90;;;;;;5032946;28;20358;-72
2021/10/31 05:23:37;;;;;;;8.70;6.70;;;4.60;99.90;;;;;;5032479;28;20029;-73
2021/10/31 05:26:03;;;;;;;9.50;6.60;;;4.60;99.90;;;;;;5031861;28;20073;-74
2021/10/31 05:28:29;;;;;;;7.80;6.03;;;4.60;99.90;;;;;;5031413;28;20083;-74
2021/10/31 05:30:55;;;;;;;10.90;6.93;;;4.60;99.90;;;;;;5031212;28;20029;-75
2021/10/31 05:33:23;;;;;;;18.87;9.97;;;4.60;99.90;;;;;;5030085;28;20026;-75
2021/10/31 05:35:50;;;;;;;14.20;8.63;;;4.50;99.90;;;;;;5031446;28;20025;-74
2021/10/31 05:38:18;;;;;;;14.37;8.77;;;4.50;99.90;;;;;;5030415;28;20026;-75
2021/10/31 05:40:45;;;;;;;16.67;9.50;;;4.50;99.90;;;;;;5030461;28;20108;-75
2021/10/31 05:43:11;;;;;;;16.43;9.47;;;4.50;99.90;;;;;;5030745;28;20028;-75
2021/10/31 05:45:36;;;;;;;33.30;16.17;;;4.50;99.90;;;;;;5031040;28;20098;-75
2021/10/31 05:48:02;;;;;;;39.47;19.23;;;4.40;99.90;;;;;;5030580;28;20084;-75
2021/10/31 05:50:28;;;;;;;46.77;21.13;;;4.40;99.90;;;;;;5030447;28;20090;-75
2021/10/31 05:52:53;;;;;;;49.50;24.20;;;4.40;99.90;;;;;;5032198;28;20060;-73
2021/10/31 05:55:19;;;;;;;50.93;22.70;;;4.40;99.90;;;;;;5032793;28;20030;-73
2021/10/31 05:57:45;;;;;;;48.27;21.90;;;4.30;99.90;;;;;;5032544;28;20055;-73
2021/10/31 06:00:13;;;;;;;40.60;18.73;;;4.30;99.90;;;;;;5036177;28;20444;-73
2021/10/31 06:02:39;;;;;;;34.70;15.00;;;4.30;99.90;;;;;;5036401;28;20071;-73
2021/10/31 06:05:05;;;;;;;20.90;11.27;;;4.30;99.90;;;;;;5036901;28;20072;-73
2021/10/31 06:07:32;;;;;;;16.13;9.93;;;4.30;99.90;;;;;;5036624;28;20021;-73
2021/10/31 06:09:58;;;;;;;12.17;7.90;;;4.30;99.90;;;;;;5036196;28;20056;-73
2021/10/31 06:12:24;;;;;;;9.53;7.20;;;4.30;99.90;;;;;;5036340;28;20110;-73
2021/10/31 06:14:50;;;;;;;11.77;7.07;;;4.30;99.90;;;;;;5036404;28;20359;-73
2021/10/31 06:17:16;;;;;;;10.87;6.53;;;4.30;99.90;;;;;;5036074;28;20056;-73
2021/10/31 06:19:42;;;;;;;10.00;6.90;;;4.30;99.90;;;;;;5036015;28;20111;-73
2021/10/31 06:22:07;;;;;;;10.20;6.40;;;4.30;99.90;;;;;;5035899;28;20033;-73
2021/10/31 06:24:33;;;;;;;10.43;6.73;;;4.30;99.90;;;;;;5036043;28;20026;-73
2021/10/31 06:26:59;;;;;;;10.67;6.30;;;4.40;99.90;;;;;;5036275;28;20026;-73
2021/10/31 06:29:24;;;;;;;10.67;6.33;;;4.40;99.90;;;;;;5052017;28;20025;-73
2021/10/31 06:31:50;;;;;;;12.43;6.20;;;4.40;99.90;;;;;;5055799;28;20017;-73
2021/10/31 06:34:16;;;;;;;7.57;6.27;;;4.40;99.90;;;;;;5056345;28;20500;-73
2021/10/31 06:36:42;;;;;;;10.20;8.60;;;4.40;99.90;;;;;;5055912;28;20021;-73
2021/10/31 06:39:08;;;;;;;12.17;9.63;;;4.40;99.90;;;;;;5055683;28;20465;-73
2021/10/31 06:41:34;;;;;;;14.60;9.80;;;4.50;99.90;;;;;;5055967;28;20062;-73
2021/10/31 06:43:59;;;;;;;12.53;8.53;;;4.50;99.90;;;;;;5055692;28;20021;-73
2021/10/31 06:46:25;;;;;;;10.07;8.13;;;4.60;99.90;;;;;;5055660;28;20378;-73
2021/10/31 06:48:52;;;;;;;15.33;8.53;;;4.60;99.90;;;;;;5056193;28;20039;-74
2021/10/31 06:51:19;;;;;;;12.87;8.50;;;4.60;99.90;;;;;;5055557;28;20104;-73
2021/10/31 06:53:44;;;;;;;9.90;7.10;;;4.70;99.90;;;;;;5055663;28;20430;-74
2021/10/31 06:56:11;;;;;;;11.70;8.53;;;4.80;99.90;;;;;;5055294;28;20060;-73
2021/10/31 06:58:37;;;;;;;11.57;7.20;;;4.80;99.90;;;;;;5050513;28;20036;-73
2021/10/31 07:01:03;;;;;;;10.50;7.17;;;4.80;99.90;;;;;;5045956;28;20021;-73
2021/10/31 07:03:28;;;;;;;9.77;7.10;;;4.90;99.90;;;;;;5055527;28;20086;-74
2021/10/31 07:05:55;;;;;;;11.47;7.60;;;5.00;99.90;;;;;;5055521;28;20486;-73
2021/10/31 07:08:20;;;;;;;11.03;8.10;;;5.00;99.90;;;;;;5039290;28;20117;-73
2021/10/31 07:10:46;;;;;;;10.43;7.50;;;5.10;99.90;;;;;;5035180;28;20522;-73
2021/10/31 07:13:11;;;;;;;9.20;7.20;;;5.10;99.90;;;;;;5036135;28;20025;-73
2021/10/31 07:15:37;;;;;;;9.60;6.30;;;5.20;99.90;;;;;;5034860;28;20104;-73
2021/10/31 07:18:03;;;;;;;8.97;6.30;;;5.30;99.90;;;;;;5035081;28;20524;-73
2021/10/31 07:20:29;;;;;;;9.37;6.30;;;5.30;99.90;;;;;;5034882;28;20049;-73
2021/10/31 07:22:55;;;;;;;9.93;6.97;;;5.40;99.90;;;;;;5035050;28;20391;-73
2021/10/31 07:25:22;;;;;;;9.93;6.30;;;5.50;99.90;;;;;;5035097;28;20018;-73
2021/10/31 07:27:48;;;;;;;9.73;5.70;;;5.60;99.90;;;;;;5034552;28;20040;-73
2021/10/31 07:30:14;;;;;;;7.90;6.27;;;5.70;99.90;;;;;;5051104;28;20025;-75
2021/10/31 07:32:40;;;;;;;9.13;5.97;;;5.80;99.90;;;;;;5034372;28;20029;-74
2021/10/31 07:35:06;;;;;;;8.70;6.07;;;5.90;99.90;;;;;;5047769;28;20036;-74
2021/10/31 07:37:33;;;;;;;10.83;6.93;;;6.00;99.90;;;;;;5034501;28;20025;-74
2021/10/31 07:39:59;;;;;;;7.73;6.03;;;6.10;99.90;;;;;;5053451;28;20167;-74
2021/10/31 07:42:28;;;;;;;8.93;6.90;;;6.20;99.90;;;;;;5035144;28;20037;-74
2021/10/31 07:44:55;;;;;;;9.20;5.73;;;6.30;99.90;;;;;;5052239;28;20022;-74
2021/10/31 07:47:21;;;;;;;7.07;5.60;;;6.50;99.90;;;;;;5054982;28;20322;-74
2021/10/31 07:49:46;;;;;;;8.60;6.60;;;6.60;99.90;;;;;;5054377;28;20032;-74
2021/10/31 07:52:12;;;;;;;7.57;6.07;;;6.70;99.90;;;;;;5046672;28;20056;-74
2021/10/31 07:54:37;;;;;;;12.60;7.07;;;6.90;99.90;;;;;;5034889;28;20036;-74
2021/10/31 07:57:05;;;;;;;11.43;7.13;;;7.00;99.90;;;;;;5034271;28;20034;-74
2021/10/31 07:59:30;;;;;;;12.07;6.87;;;7.10;99.90;;;;;;5034071;28;20044;-74
2021/10/31 08:01:56;;;;;;;8.03;6.80;;;7.30;99.90;;;;;;5034168;28;20041;-74
2021/10/31 08:04:23;;;;;;;7.73;5.93;;;7.40;99.90;;;;;;5034167;28;20049;-74
2021/10/31 08:06:49;;;;;;;8.57;6.50;;;7.60;99.90;;;;;;5034028;28;20105;-74
2021/10/31 08:09:14;;;;;;;8.30;6.00;;;7.70;99.90;;;;;;5033708;28;20414;-74
2021/10/31 08:11:43;;;;;;;8.10;6.20;;;7.90;99.90;;;;;;5033983;28;20021;-74
2021/10/31 08:14:10;;;;;;;7.17;5.83;;;8.10;99.90;;;;;;5040380;28;20036;-74
2021/10/31 08:16:36;;;;;;;8.40;5.53;;;8.20;99.90;;;;;;5053833;28;20025;-74
2021/10/31 08:19:07;;;;;;;8.23;6.00;;;8.40;99.90;;;;;;5048546;28;20075;-67
2021/10/31 08:21:33;;;;;;;9.40;5.73;;;8.60;99.90;;;;;;5031868;28;20184;-74
2021/10/31 08:23:59;;;;;;;9.50;5.30;;;8.80;99.90;;;;;;5033671;28;20033;-74
2021/10/31 08:26:25;;;;;;;8.70;6.17;;;9.10;99.90;;;;;;5033782;28;20022;-74
2021/10/31 08:28:51;;;;;;;11.70;6.00;;;9.30;99.90;;;;;;5033520;28;20120;-74
2021/10/31 08:31:28;;;;;;;6.73;5.43;;;9.60;99.90;;;;;;5033569;28;20033;-74
2021/10/31 08:33:59;;;;;;;7.63;5.13;;;9.90;99.90;;;;;;5033900;28;20017;-74
2021/10/31 08:36:29;;;;;;;9.23;5.37;;;10.10;99.90;;;;;;5033801;28;20051;-74
2021/10/31 08:38:56;;;;;;;9.23;5.00;;;10.30;99.90;;;;;;5033706;28;20057;-74
2021/10/31 08:41:23;;;;;;;6.38;4.90;;;10.50;99.90;;;;;;5031854;28;20021;-74
2021/10/31 08:43:50;;;;;;;6.80;4.60;;;10.70;99.90;;;;;;5033328;28;20370;-75
2021/10/31 08:46:17;;;;;;;7.75;5.10;;;10.90;99.90;;;;;;5033453;28;20040;-74
2021/10/31 08:48:43;;;;;;;10.25;5.80;;;11.10;99.90;;;;;;5033599;28;20028;-74
2021/10/31 08:51:09;;;;;;;8.77;6.00;;;11.30;99.90;;;;;;5038674;28;20057;-74
2021/10/31 08:53:35;;;;;;;8.25;5.93;;;11.50;99.90;;;;;;5033627;28;20053;-75
2021/10/31 08:56:01;;;;;;;10.68;6.57;;;11.60;99.90;;;;;;5033433;28;20025;-74
2021/10/31 08:58:28;;;;;;;9.73;6.65;;;11.80;99.90;;;;;;5037384;28;20030;-74
2021/10/31 09:00:53;;;;;;;9.20;6.97;;;11.90;99.90;;;;;;5037710;28;20037;-75
2021/10/31 09:03:19;;;;;;;9.35;6.47;;;12.10;99.90;;;;;;5051657;28;20027;-74
2021/10/31 09:05:45;;;;;;;11.15;6.93;;;12.20;99.90;;;;;;5037416;28;20036;-74
2021/10/31 09:08:10;;;;;;;10.15;6.70;;;12.40;99.90;;;;;;5043407;28;20378;-75
2021/10/31 09:10:38;;;;;;;8.70;7.03;;;12.50;99.90;;;;;;5048678;28;20048;-74
2021/10/31 09:13:03;;;;;;;10.60;7.43;;;12.60;99.90;;;;;;5045837;28;20029;-74
2021/10/31 09:15:31;;;;;;;11.05;6.90;;;12.70;99.90;;;;;;5034422;28;20397;-74
2021/10/31 09:17:57;;;;;;;35.63;19.27;;;12.90;99.90;;;;;;5039145;28;20112;-74
2021/10/31 09:20:25;;;;;;;93.22;44.83;;;12.90;99.90;;;;;;5048200;28;20463;-74
2021/10/31 09:22:53;;;;;;;20.08;13.65;;;13.00;99.90;;;;;;5037325;28;20021;-74
2021/10/31 09:25:19;;;;;;;12.43;7.97;;;13.20;99.90;;;;;;5044375;28;20359;-74
2021/10/31 09:27:45;;;;;;;11.10;5.85;;;13.30;99.90;;;;;;5051705;28;20021;-74
2021/10/31 09:30:11;;;;;;;19.95;15.35;;;13.40;99.90;;;;;;5043248;28;20021;-74
2021/10/31 09:32:41;;;;;;;13.18;9.80;;;13.60;99.90;;;;;;5042536;28;20028;-74
2021/10/31 09:35:11;;;;;;;25.05;18.92;;;13.70;99.90;;;;;;5048344;28;20462;-74
2021/10/31 09:37:37;;;;;;;12.63;8.10;;;13.80;99.90;;;;;;5037650;28;20033;-73
2021/10/31 09:40:04;;;;;;;8.82;4.80;;;13.90;99.90;;;;;;5053220;28;20140;-73
2021/10/31 09:42:33;;;;;;;11.80;6.22;;;14.00;99.90;;;;;;5036591;28;20017;-73
2021/10/31 09:44:58;;;;;;;7.65;5.82;;;14.10;99.90;;;;;;5044591;28;20029;-73
2021/10/31 09:47:25;;;;;;;6.95;5.03;;;14.20;99.90;;;;;;5039758;28;20021;-73
2021/10/31 09:49:51;;;;;;;9.15;4.32;;;14.50;99.90;;;;;;5056368;28;20029;-73
2021/10/31 09:52:19;;;;;;;4.93;3.33;;;14.70;99.90;;;;;;5056483;28;20083;-73
2021/10/31 09:54:46;;;;;;;6.03;4.88;;;14.80;99.90;;;;;;5056269;28;20477;-75
2021/10/31 09:57:12;;;;;;;12.27;10.00;;;15.00;99.90;;;;;;5056531;28;20090;-74
2021/10/31 09:59:43;;;;;;;11.52;9.88;;;15.20;99.90;;;;;;5056458;28;20061;-74
2021/10/31 10:02:13;;;;;;;22.48;17.55;;;15.30;99.90;;;;;;5037344;28;20049;-74
2021/10/31 10:04:50;;;;;;;5.32;3.00;;;15.40;99.90;;;;;;5043134;28;20519;-74
2021/10/31 10:07:17;;;;;;;6.85;4.88;;;15.60;99.90;;;;;;5035602;28;20366;-73
2021/10/31 10:09:54;;;;;;;4.38;3.28;;;15.70;99.90;;;;;;5035893;28;20038;-73
2021/10/31 10:12:22;;;;;;;4.15;2.53;;;15.80;99.90;;;;;;5036346;28;20026;-73
2021/10/31 10:14:54;;;;;;;3.40;2.30;;;15.90;99.90;;;;;;5035909;28;20065;-73
2021/10/31 10:17:20;;;;;;;4.15;2.30;;;16.00;99.90;;;;;;5042630;28;20074;-74
2021/10/31 10:19:49;;;;;;;3.35;2.10;;;16.10;99.90;;;;;;5055929;28;20017;-74
2021/10/31 10:22:18;;;;;;;2.97;2.20;;;16.20;99.90;;;;;;5055701;28;20099;-74
2021/10/31 10:24:59;;;;;;;3.40;1.98;;;16.20;99.90;;;;;;5055912;28;20017;-74
2021/10/31 10:27:27;;;;;;;4.43;2.22;;;16.30;99.90;;;;;;5041933;28;20354;-74
2021/10/31 10:29:55;;;;;;;4.53;1.98;;;16.40;99.90;;;;;;5035993;28;20104;-73
2021/10/31 10:32:23;;;;;;;3.00;1.92;;;16.60;99.90;;;;;;5035725;28;20029;-73
2021/10/31 10:34:52;;;;;;;4.38;2.00;;;16.70;99.90;;;;;;5035654;28;20036;-73
2021/10/31 10:37:33;;;;;;;2.50;1.70;;;16.80;99.90;;;;;;5036026;28;20031;-73
2021/10/31 10:40:00;;;;;;;3.13;1.70;;;17.10;99.90;;;;;;5035635;28;20048;-73
2021/10/31 10:42:36;;;;;;;4.75;1.90;;;17.10;99.90;;;;;;5035652;28;20352;-73
2021/10/31 10:45:11;;;;;;;3.38;2.25;;;17.20;99.90;;;;;;5034574;28;20025;-73
2021/10/31 10:47:45;;;;;;;5.65;1.88;;;17.40;99.90;;;;;;5035321;28;20022;-73
2021/10/31 10:50:22;;;;;;;5.28;1.85;;;17.50;99.90;;;;;;5035445;28;20029;-73
2021/10/31 10:52:49;;;;;;;4.03;1.77;;;17.50;99.90;;;;;;5035130;28;20033;-74
2021/10/31 10:55:39;;;;;;;2.80;1.77;;;17.70;99.90;;;;;;5033928;28;20033;-73
2021/10/31 10:58:18;;;;;;;2.35;1.60;;;17.80;99.90;;;;;;5035235;28;20064;-74
2021/10/31 11:00:49;;;;;;;2.95;1.73;;;17.60;99.90;;;;;;5035491;28;20060;-74
2021/10/31 11:03:21;;;;;;;6.40;4.32;;;17.80;99.90;;;;;;5035231;28;20017;-74
2021/10/31 11:05:48;;;;;;;3.83;1.98;;;17.80;99.90;;;;;;5042185;28;20485;-73
2021/10/31 11:08:24;;;;;;;3.38;1.92;;;17.80;99.90;;;;;;5055187;28;20047;-74
2021/10/31 11:10:58;;;;;;;3.08;2.20;;;17.90;99.90;;;;;;5054951;28;20017;-73
2021/10/31 11:13:26;;;;;;;3.35;1.63;;;17.90;99.90;;;;;;5053443;28;20028;-73
2021/10/31 11:15:54;;;;;;;3.22;1.73;;;17.90;99.90;;;;;;5054633;28;20444;-74
2021/10/31 11:18:19;;;;;;;2.38;1.60;;;18.00;99.90;;;;;;5041829;28;20112;-74
2021/10/31 11:20:47;;;;;;;3.28;1.77;;;18.10;99.90;;;;;;5034888;28;20122;-74
2021/10/31 11:23:16;;;;;;;4.82;1.80;;;18.20;99.90;;;;;;5034507;28;20056;-74
2021/10/31 11:25:44;;;;;;;2.80;1.50;;;18.20;99.90;;;;;;5034449;28;20021;-74
2021/10/31 11:28:13;;;;;;;2.85;1.52;;;18.20;99.90;;;;;;5034717;28;20033;-74
2021/10/31 11:30:41;;;;;;;2.55;1.52;;;18.20;99.90;;;;;;5034628;28;20017;-74
2021/10/31 11:33:08;;;;;;;3.35;1.60;;;18.40;99.90;;;;;;5034577;28;20029;-74
2021/10/31 11:35:35;;;;;;;2.53;1.55;;;18.40;99.90;;;;;;5034286;28;20017;-74
2021/10/31 11:38:18;;;;;;;2.88;1.45;;;18.40;99.90;;;;;;5034238;28;20067;-74
2021/10/31 11:41:09;;;;;;;2.90;1.77;;;18.50;99.00;;;;;;5034457;28;20030;-74
2021/10/31 11:43:36;;;;;;;2.95;1.65;;;18.40;99.60;;;;;;5034436;28;20025;-74
2021/10/31 11:46:03;;;;;;;2.58;1.63;;;18.40;99.30;;;;;;5034560;28;20112;-74
2021/10/31 11:48:32;;;;;;;2.60;1.70;;;18.50;99.90;;;;;;5034106;28;20013;-74
2021/10/31 11:51:01;;;;;;;3.08;1.60;;;18.60;99.90;;;;;;5034216;28;20096;-74
2021/10/31 11:53:33;;;;;;;2.95;1.48;;;18.60;99.10;;;;;;5034152;28;20088;-74
2021/10/31 11:56:02;;;;;;;3.17;1.60;;;18.70;99.30;;;;;;5033816;28;20018;-75
2021/10/31 11:58:38;;;;;;;3.40;1.92;;;18.80;99.80;;;;;;5033164;28;20025;-75
2021/10/31 12:01:20;;;;;;;2.88;1.52;;;18.90;98.10;;;;;;5030954;28;20037;-75
2021/10/31 12:03:50;;;;;;;3.40;2.25;;;18.90;99.40;;;;;;5030933;28;20029;-75
2021/10/31 12:06:15;;;;;;;3.60;2.30;;;18.70;98.80;;;;;;5031444;28;20036;-75
2021/10/31 12:09:02;;;;;;;2.75;1.92;;;18.80;98.00;;;;;;5030964;28;20018;-75
2021/10/31 12:11:30;;;;;;;4.53;2.28;;;18.80;98.90;;;;;;5031000;28;20037;-75
2021/10/31 12:14:06;;;;;;;3.42;2.13;;;18.90;99.10;;;;;;5030765;28;20029;-75
2021/10/31 12:16:52;;;;;;;4.10;2.65;;;19.00;99.70;;;;;;5030380;28;20070;-75
2021/10/31 12:19:34;;;;;;;12.57;11.35;;;18.90;99.90;;;;;;5017725;28;20029;-75
2021/10/31 12:22:19;;;;;;;14.00;12.65;;;18.90;99.40;;;;;;5030367;28;20037;-75
2021/10/31 12:24:56;;;;;;;4.88;3.10;;;18.80;98.00;;;;;;5030674;28;20021;-73
2021/10/31 12:27:26;;;;;;;8.82;8.00;;;19.00;98.00;;;;;;5030930;28;20091;-75
2021/10/31 12:30:12;;;;;;;8.13;7.32;;;18.90;98.80;;;;;;5030381;28;20050;-73
2021/10/31 12:32:43;;;;;;;3.65;2.88;;;18.80;98.10;;;;;;5027199;28;20032;-73
2021/10/31 12:35:28;;;;;;;4.57;2.10;;;18.80;97.70;;;;;;5027584;28;20406;-73
2021/10/31 12:38:14;;;;;;;2.95;1.90;;;18.90;96.90;;;;;;5025584;28;20024;-73
2021/10/31 12:40:40;;;;;;;5.95;2.65;;;18.90;97.40;;;;;;5028152;28;20450;-73
2021/10/31 12:43:07;;;;;;;21.73;19.55;;;18.80;96.70;;;;;;5052478;28;20037;-72
2021/10/31 12:45:34;;;;;;;16.08;14.68;;;18.80;96.90;;;;;;5035649;28;20087;-73
2021/10/31 12:48:09;;;;;;;4.78;3.53;;;18.60;97.30;;;;;;5034708;28;20096;-73
2021/10/31 12:50:35;;;;;;;4.53;3.58;;;18.60;97.70;;;;;;5034383;28;20017;-73
2021/10/31 12:53:09;;;;;;;4.65;4.18;;;18.60;97.70;;;;;;5034283;28;20020;-72